No particular awareness of the weather is required.    There are no Weather-warnings


Meteo18 Weather Cam more information Meteo18 Weather Cam


Thunder radar more information blitzortung!


Rain radar more information rain snow radar


Visit our other weather sites:

Template documentation
and downloads

And another site



Weather Underground History page Text

Daily Summary for June 28, 2016 Units:  Metric    English   Both
« Previous Day
Next Day »
Daily Weekly Monthly Yearly Custom
  High: Low: Average:
Temperature: 24.9 °C 15.6 °C 19.2 °C
Dew Point: 17.6 °C 14.8 °C 16.1 °C
Humidity: 97 % 60 % 83 %
Wind Speed: 8.0 km/h 0.0 km/h 1.2 km/h
Wind Gust: 16.1 km/h - -
Wind:- - WSW
Pressure: 1021.2 hPa 1014.8 hPa -
Precipitation: 0.5 mm    
Historical Graphs
 
 
Tabular Data for June 28, 2016
Time Temperature Dew Point Pressure Wind Wind Speed Wind Gust Humidity Rainfall Rate (Hourly)
00:02 17.2 °C 16.1 °C 1021.2 hPa Calm   3.2 km/h 93 % 0.0 mm
00:07 17.1 °C 16.0 °C 1021.2 hPa Calm   1.6 km/h 93 % 0.0 mm
00:12 17.1 °C 16.1 °C 1020.9 hPa Calm   1.6 km/h 94 % 0.0 mm
00:17 17.1 °C 16.1 °C 1021.2 hPa Calm   3.2 km/h 94 % 0.0 mm
00:22 17.1 °C 16.1 °C 1021.2 hPa Calm   3.2 km/h 94 % 0.3 mm
00:27 17.0 °C 16.0 °C 1021.2 hPa Calm   3.2 km/h 94 % 0.3 mm
00:32 16.9 °C 15.9 °C 1021.2 hPa West 3.2 km/h 3.2 km/h 94 % 0.3 mm
00:37 16.9 °C 15.9 °C 1021.2 hPa Calm   3.2 km/h 94 % 0.3 mm
00:42 16.8 °C 15.8 °C 1021.2 hPa Calm   4.8 km/h 94 % 0.5 mm
00:47 16.7 °C 15.7 °C 1021.2 hPa Calm   4.8 km/h 94 % 0.5 mm
00:52 16.7 °C 15.9 °C 1020.9 hPa Calm   4.8 km/h 95 % 0.5 mm
00:57 16.6 °C 15.8 °C 1020.9 hPa Calm   3.2 km/h 95 % 0.5 mm
01:02 16.6 °C 15.8 °C 1020.9 hPa Calm   3.2 km/h 95 % 0.5 mm
01:07 16.6 °C 15.8 °C 1020.9 hPa Calm   1.6 km/h 95 % 0.5 mm
01:12 16.6 °C 15.8 °C 1020.9 hPa Calm   1.6 km/h 95 % 0.5 mm
01:17 16.6 °C 15.8 °C 1020.9 hPa Calm   1.6 km/h 95 % 0.3 mm
01:22 16.6 °C 15.8 °C 1020.9 hPa Calm   1.6 km/h 95 % 0.3 mm
01:27 16.6 °C 15.8 °C 1020.9 hPa Calm   1.6 km/h 95 % 0.5 mm
01:32 16.6 °C 15.8 °C 1020.9 hPa Calm   1.6 km/h 95 % 0.5 mm
01:37 16.7 °C 15.9 °C 1020.9 hPa Calm   1.6 km/h 95 % 0.3 mm
01:42 16.7 °C 15.9 °C 1020.5 hPa Calm   1.6 km/h 95 % 0.3 mm
01:47 16.7 °C 15.9 °C 1020.9 hPa Calm   1.6 km/h 95 % 0.3 mm
01:52 16.7 °C 16.1 °C 1020.9 hPa Calm   1.6 km/h 96 % 0.3 mm
01:57 16.6 °C 16.0 °C 1020.5 hPa Calm   1.6 km/h 96 % 0.3 mm
02:02 16.7 °C 16.1 °C 1020.5 hPa Calm   1.6 km/h 96 % 0.3 mm
02:07 16.7 °C 16.1 °C 1020.5 hPa Calm   1.6 km/h 96 % 0.3 mm
02:12 16.7 °C 16.1 °C 1020.5 hPa Calm   1.6 km/h 96 % 0.3 mm
02:17 16.7 °C 16.1 °C 1020.5 hPa Calm   3.2 km/h 96 % 0.3 mm
02:22 16.7 °C 16.1 °C 1020.5 hPa WSW 1.6 km/h 3.2 km/h 96 % 0.3 mm
02:27 16.7 °C 16.1 °C 1020.2 hPa Calm   3.2 km/h 96 % 0.0 mm
02:32 16.7 °C 16.1 °C 1020.2 hPa Calm   3.2 km/h 96 % 0.0 mm
02:37 16.7 °C 16.1 °C 1020.2 hPa Calm   3.2 km/h 96 % 0.0 mm
02:42 16.7 °C 16.1 °C 1020.2 hPa Calm   3.2 km/h 96 % 0.0 mm
02:47 16.7 °C 16.1 °C 1020.2 hPa Calm   3.2 km/h 96 % 0.0 mm
02:57 16.7 °C 16.1 °C 1020.2 hPa Calm   3.2 km/h 96 % 0.0 mm
03:02 16.7 °C 16.1 °C 1020.2 hPa Calm   3.2 km/h 96 % 0.0 mm
03:07 16.7 °C 16.1 °C 1020.2 hPa SW 1.6 km/h 3.2 km/h 96 % 0.0 mm
03:12 16.7 °C 16.1 °C 1020.2 hPa Calm   3.2 km/h 96 % 0.0 mm
03:17 16.7 °C 16.1 °C 1020.2 hPa Calm   3.2 km/h 96 % 0.0 mm
03:22 16.7 °C 16.1 °C 1020.2 hPa Calm   3.2 km/h 96 % 0.0 mm
03:27 16.7 °C 16.1 °C 1019.9 hPa Calm   3.2 km/h 96 % 0.0 mm
03:32 16.7 °C 16.1 °C 1019.9 hPa Calm   3.2 km/h 96 % 0.0 mm
03:37 16.7 °C 16.1 °C 1019.9 hPa Calm   3.2 km/h 96 % 0.0 mm
03:42 16.7 °C 16.1 °C 1019.9 hPa Calm   3.2 km/h 96 % 0.0 mm
03:47 16.7 °C 16.1 °C 1019.9 hPa Calm   3.2 km/h 96 % 0.0 mm
03:52 16.7 °C 16.1 °C 1019.9 hPa Calm   3.2 km/h 96 % 0.0 mm
03:57 16.7 °C 16.1 °C 1019.9 hPa Calm   1.6 km/h 96 % 0.0 mm
04:02 16.7 °C 16.1 °C 1019.9 hPa Calm   1.6 km/h 96 % 0.0 mm
04:07 16.7 °C 16.1 °C 1019.9 hPa Calm   1.6 km/h 96 % 0.0 mm
04:12 16.6 °C 16.0 °C 1019.9 hPa Calm   1.6 km/h 96 % 0.0 mm
04:17 16.5 °C 15.9 °C 1019.9 hPa Calm   1.6 km/h 96 % 0.0 mm
04:22 16.4 °C 15.6 °C 1019.9 hPa Calm   1.6 km/h 95 % 0.0 mm
04:27 16.4 °C 15.6 °C 1019.9 hPa Calm   1.6 km/h 95 % 0.0 mm
04:32 16.4 °C 15.8 °C 1019.9 hPa Calm   1.6 km/h 96 % 0.0 mm
04:37 16.4 °C 15.6 °C 1019.9 hPa Calm   1.6 km/h 95 % 0.0 mm
04:47 16.3 °C 15.5 °C 1019.9 hPa Calm     95 % 0.0 mm
05:02 16.2 °C 15.4 °C 1019.5 hPa Calm     95 % 0.0 mm
05:12 16.1 °C 15.3 °C 1019.9 hPa Calm   1.6 km/h 95 % 0.0 mm
05:17 16.1 °C 15.3 °C 1019.9 hPa Calm   1.6 km/h 95 % 0.0 mm
05:22 16.0 °C 15.2 °C 1019.5 hPa Calm   1.6 km/h 95 % 0.0 mm
05:52 15.7 °C 15.1 °C 1019.5 hPa Calm     96 % 0.0 mm
05:57 15.7 °C 15.1 °C 1019.5 hPa Calm   1.6 km/h 96 % 0.0 mm
06:02 15.6 °C 15.0 °C 1019.5 hPa Calm   1.6 km/h 96 % 0.0 mm
06:07 15.6 °C 15.0 °C 1019.5 hPa Calm   1.6 km/h 96 % 0.0 mm
06:12 15.6 °C 15.0 °C 1019.5 hPa Calm   1.6 km/h 96 % 0.0 mm
06:17 15.7 °C 15.1 °C 1019.5 hPa Calm   1.6 km/h 96 % 0.0 mm
06:22 15.7 °C 15.1 °C 1019.5 hPa WSW 1.6 km/h 1.6 km/h 96 % 0.0 mm
06:32 15.8 °C 15.2 °C 1019.5 hPa Calm   3.2 km/h 96 % 0.0 mm
06:37 15.9 °C 15.4 °C 1019.5 hPa Calm   1.6 km/h 97 % 0.0 mm
06:42 15.9 °C 15.4 °C 1019.5 hPa Calm   1.6 km/h 97 % 0.0 mm
06:47 16.0 °C 15.5 °C 1019.5 hPa Calm   3.2 km/h 97 % 0.0 mm
06:52 16.1 °C 15.5 °C 1019.5 hPa Calm   3.2 km/h 96 % 0.0 mm
06:57 16.1 °C 15.5 °C 1019.5 hPa Calm   3.2 km/h 96 % 0.0 mm
07:02 16.1 °C 15.5 °C 1019.5 hPa Calm   3.2 km/h 96 % 0.0 mm
07:12 16.1 °C 15.5 °C 1019.5 hPa Calm   3.2 km/h 96 % 0.0 mm
07:22 16.0 °C 15.4 °C 1019.5 hPa Calm   3.2 km/h 96 % 0.0 mm
07:32 16.1 °C 15.5 °C 1019.5 hPa Calm   3.2 km/h 96 % 0.0 mm
07:42 16.2 °C 15.6 °C 1019.5 hPa Calm   1.6 km/h 96 % 0.0 mm
07:47 16.3 °C 15.7 °C 1019.5 hPa Calm     96 % 0.0 mm
07:52 16.3 °C 15.5 °C 1019.5 hPa SW 1.6 km/h   95 % 0.0 mm
08:02 16.3 °C 15.3 °C 1019.9 hPa Calm   3.2 km/h 94 % 0.0 mm
08:07 16.3 °C 15.3 °C 1019.9 hPa WSW 1.6 km/h 6.4 km/h 94 % 0.0 mm
08:12 16.3 °C 15.3 °C 1019.5 hPa Calm   6.4 km/h 94 % 0.0 mm
08:17 16.4 °C 15.4 °C 1019.5 hPa Calm   6.4 km/h 94 % 0.0 mm
08:22 16.4 °C 15.4 °C 1019.5 hPa Calm   6.4 km/h 94 % 0.0 mm
08:32 16.5 °C 15.5 °C 1019.5 hPa WSW 1.6 km/h 6.4 km/h 94 % 0.0 mm
08:42 16.8 °C 15.8 °C 1019.5 hPa Calm   6.4 km/h 94 % 0.0 mm
08:47 16.9 °C 15.9 °C 1019.5 hPa Calm   4.8 km/h 94 % 0.0 mm
08:52 17.0 °C 16.0 °C 1019.5 hPa Calm   4.8 km/h 94 % 0.0 mm
08:57 17.2 °C 16.1 °C 1019.5 hPa WSW 1.6 km/h 1.6 km/h 93 % 0.0 mm
09:02 17.3 °C 16.2 °C 1019.5 hPa Calm   1.6 km/h 93 % 0.0 mm
09:12 17.4 °C 16.1 °C 1019.5 hPa WSW 3.2 km/h 3.2 km/h 92 % 0.0 mm
09:17 17.4 °C 16.1 °C 1019.2 hPa Calm   4.8 km/h 92 % 0.0 mm
09:22 17.5 °C 16.0 °C 1019.2 hPa Calm   4.8 km/h 91 % 0.0 mm
09:32 17.5 °C 16.0 °C 1019.2 hPa Calm   6.4 km/h 91 % 0.0 mm
09:37 17.8 °C 16.5 °C 1019.2 hPa Calm   4.8 km/h 92 % 0.0 mm
09:42 17.9 °C 16.2 °C 1019.2 hPa SW 3.2 km/h 4.8 km/h 90 % 0.0 mm
09:52 17.9 °C 16.2 °C 1019.2 hPa SW 3.2 km/h 4.8 km/h 90 % 0.0 mm
09:57 18.1 °C 16.4 °C 1019.2 hPa West 1.6 km/h 4.8 km/h 90 % 0.0 mm
10:02 18.4 °C 16.6 °C 1018.8 hPa WSW 3.2 km/h 4.8 km/h 89 % 0.0 mm
10:07 18.8 °C 16.2 °C 1018.8 hPa Calm   8.0 km/h 85 % 0.0 mm
10:12 19.1 °C 16.5 °C 1018.8 hPa WSW 3.2 km/h 8.0 km/h 85 % 0.0 mm
10:22 19.8 °C 17.2 °C 1018.8 hPa Calm   9.7 km/h 85 % 0.0 mm
10:37 19.7 °C 16.2 °C 1018.8 hPa West 1.6 km/h 8.0 km/h 80 % 0.0 mm
10:42 19.6 °C 16.1 °C 1018.8 hPa WSW 3.2 km/h 8.0 km/h 80 % 0.0 mm
10:52 20.0 °C 16.0 °C 1018.8 hPa SW 1.6 km/h 11.3 km/h 78 % 0.0 mm
10:57 20.4 °C 16.4 °C 1018.8 hPa WSW 4.8 km/h 8.0 km/h 78 % 0.0 mm
11:02 20.3 °C 16.5 °C 1018.8 hPa Calm   8.0 km/h 79 % 0.0 mm
11:07 20.5 °C 16.5 °C 1018.8 hPa WSW 4.8 km/h 9.7 km/h 78 % 0.0 mm
11:12 20.4 °C 16.4 °C 1018.5 hPa SE 3.2 km/h 9.7 km/h 78 % 0.0 mm
11:17 20.1 °C 16.1 °C 1018.8 hPa SSW 8.0 km/h 11.3 km/h 78 % 0.0 mm
11:22 19.7 °C 16.2 °C 1018.8 hPa WSW 1.6 km/h 11.3 km/h 80 % 0.0 mm
11:27 19.2 °C 16.1 °C 1018.8 hPa WSW 1.6 km/h 14.5 km/h 82 % 0.0 mm
11:32 18.9 °C 15.9 °C 1018.8 hPa Calm   14.5 km/h 83 % 0.0 mm
11:42 18.9 °C 16.3 °C 1018.8 hPa WNW 3.2 km/h 16.1 km/h 85 % 0.0 mm
11:47 19.1 °C 16.1 °C 1018.8 hPa West 1.6 km/h 11.3 km/h 83 % 0.0 mm
11:57 20.0 °C 16.8 °C 1018.8 hPa SSW 3.2 km/h 11.3 km/h 82 % 0.0 mm
12:02 20.0 °C 16.2 °C 1018.5 hPa West 1.6 km/h 11.3 km/h 79 % 0.0 mm
12:12 19.6 °C 16.1 °C 1018.5 hPa SW 3.2 km/h 12.9 km/h 80 % 0.0 mm
12:17 19.6 °C 16.2 °C 1018.5 hPa WSW 3.2 km/h 12.9 km/h 81 % 0.0 mm
12:22 19.8 °C 16.1 °C 1018.5 hPa Calm   9.7 km/h 79 % 0.0 mm
12:27 20.4 °C 16.6 °C 1018.2 hPa WSW 1.6 km/h 9.7 km/h 79 % 0.0 mm
12:37 21.1 °C 16.5 °C 1018.2 hPa SW 4.8 km/h 9.7 km/h 75 % 0.0 mm
12:42 21.2 °C 16.8 °C 1018.2 hPa WSW 1.6 km/h 9.7 km/h 76 % 0.0 mm
12:47 21.1 °C 16.9 °C 1017.8 hPa WSW 4.8 km/h 8.0 km/h 77 % 0.0 mm
12:52 20.8 °C 16.2 °C 1018.2 hPa West 3.2 km/h 8.0 km/h 75 % 0.0 mm
13:02 21.0 °C 16.8 °C 1017.8 hPa WSW 4.8 km/h 8.0 km/h 77 % 0.0 mm
13:07 20.9 °C 16.3 °C 1017.8 hPa WSW 1.6 km/h 8.0 km/h 75 % 0.0 mm
13:12 20.7 °C 16.5 °C 1018.2 hPa WSW 3.2 km/h 8.0 km/h 77 % 0.0 mm
13:17 20.4 °C 17.2 °C 1018.2 hPa WSW 1.6 km/h 11.3 km/h 82 % 0.0 mm
13:22 20.3 °C 17.3 °C 1018.2 hPa Calm   11.3 km/h 83 % 0.0 mm
13:32 20.9 °C 17.5 °C 1017.8 hPa Calm   8.0 km/h 81 % 0.0 mm
13:37 21.6 °C 17.4 °C 1017.8 hPa SW 1.6 km/h 6.4 km/h 77 % 0.0 mm
13:42 21.6 °C 16.6 °C 1017.8 hPa Calm   6.4 km/h 73 % 0.0 mm
13:47 21.9 °C 16.8 °C 1017.8 hPa WSW 4.8 km/h 8.0 km/h 73 % 0.0 mm
13:52 22.0 °C 16.9 °C 1017.8 hPa Calm   8.0 km/h 73 % 0.0 mm
13:57 22.0 °C 16.5 °C 1017.8 hPa Calm   9.7 km/h 71 % 0.0 mm
14:02 22.1 °C 16.8 °C 1017.8 hPa SW 4.8 km/h 9.7 km/h 72 % 0.0 mm
14:07 21.8 °C 16.3 °C 1017.8 hPa WSW 3.2 km/h 9.7 km/h 71 % 0.0 mm
14:12 21.5 °C 16.7 °C 1017.8 hPa WSW 4.8 km/h 9.7 km/h 74 % 0.0 mm
14:17 21.8 °C 17.0 °C 1017.5 hPa SSW 1.6 km/h 8.0 km/h 74 % 0.0 mm
14:22 22.4 °C 17.5 °C 1017.2 hPa Calm   8.0 km/h 74 % 0.0 mm
14:27 22.9 °C 16.4 °C 1017.2 hPa WSW 6.4 km/h 12.9 km/h 67 % 0.0 mm
14:32 23.2 °C 16.5 °C 1017.2 hPa WSW 3.2 km/h 12.9 km/h 66 % 0.0 mm
14:37 23.8 °C 17.3 °C 1017.2 hPa Calm   12.9 km/h 67 % 0.0 mm
14:42 24.1 °C 16.1 °C 1017.2 hPa WNW 4.8 km/h 12.9 km/h 61 % 0.0 mm
14:47 23.8 °C 16.6 °C 1017.2 hPa WSW 4.8 km/h 9.7 km/h 64 % 0.0 mm
14:52 23.4 °C 16.2 °C 1017.2 hPa East 1.6 km/h 9.7 km/h 64 % 0.0 mm
14:57 23.8 °C 17.1 °C 1016.8 hPa WSW 6.4 km/h 12.9 km/h 66 % 0.0 mm
15:07 24.2 °C 16.2 °C 1016.8 hPa SSW 1.6 km/h 11.3 km/h 61 % 0.0 mm
15:17 23.8 °C 16.1 °C 1016.8 hPa West 1.6 km/h 11.3 km/h 62 % 0.0 mm
15:22 23.9 °C 17.4 °C 1016.8 hPa Calm   11.3 km/h 67 % 0.0 mm
15:32 24.9 °C 17.6 °C 1016.8 hPa WSW 1.6 km/h 9.7 km/h 64 % 0.0 mm
15:37 24.7 °C 16.7 °C 1016.8 hPa SW 3.2 km/h 8.0 km/h 61 % 0.0 mm
15:42 23.9 °C 15.7 °C 1016.8 hPa WSW 1.6 km/h 8.0 km/h 60 % 0.0 mm
15:47 23.4 °C 16.4 °C 1016.5 hPa WSW 3.2 km/h 9.7 km/h 65 % 0.0 mm
15:52 23.9 °C 16.4 °C 1016.5 hPa WSW 3.2 km/h 9.7 km/h 63 % 0.0 mm
15:57 23.6 °C 15.6 °C 1016.5 hPa WSW 1.6 km/h 9.7 km/h 61 % 0.0 mm
16:02 23.2 °C 15.8 °C 1016.5 hPa West 4.8 km/h 9.7 km/h 63 % 0.0 mm
16:12 23.0 °C 16.1 °C 1016.5 hPa SE 1.6 km/h 6.4 km/h 65 % 0.0 mm
16:17 23.7 °C 17.0 °C 1016.1 hPa Calm   6.4 km/h 66 % 0.0 mm
16:22 24.1 °C 17.1 °C 1016.1 hPa Calm   6.4 km/h 65 % 0.0 mm
16:32 23.4 °C 16.2 °C 1016.1 hPa SW 1.6 km/h 4.8 km/h 64 % 0.0 mm
16:37 22.9 °C 15.7 °C 1016.1 hPa WSW 3.2 km/h 8.0 km/h 64 % 0.0 mm
16:42 22.4 °C 15.7 °C 1016.1 hPa Calm   8.0 km/h 66 % 0.0 mm
16:52 22.2 °C 16.2 °C 1016.1 hPa Calm   8.0 km/h 69 % 0.0 mm
16:57 23.2 °C 17.0 °C 1015.8 hPa Calm   6.4 km/h 68 % 0.0 mm
17:02 23.4 °C 16.4 °C 1015.8 hPa SE 1.6 km/h 6.4 km/h 65 % 0.0 mm
17:12 23.6 °C 16.1 °C 1015.8 hPa Calm   6.4 km/h 63 % 0.0 mm
17:17 23.4 °C 16.0 °C 1015.8 hPa SW 1.6 km/h 6.4 km/h 63 % 0.0 mm
17:22 23.1 °C 16.4 °C 1015.8 hPa Calm   6.4 km/h 66 % 0.0 mm
17:32 22.3 °C 15.9 °C 1015.5 hPa Calm   6.4 km/h 67 % 0.0 mm
17:37 22.2 °C 16.2 °C 1015.8 hPa WSW 1.6 km/h 4.8 km/h 69 % 0.0 mm
17:42 22.0 °C 16.5 °C 1015.8 hPa WSW 4.8 km/h 4.8 km/h 71 % 0.0 mm
17:47 21.8 °C 16.5 °C 1015.8 hPa West 8.0 km/h 11.3 km/h 72 % 0.0 mm
17:52 21.7 °C 16.9 °C 1015.8 hPa WSW 3.2 km/h 11.3 km/h 74 % 0.0 mm
17:57 21.7 °C 16.6 °C 1015.8 hPa WSW 4.8 km/h 14.5 km/h 73 % 0.0 mm
18:02 21.5 °C 16.5 °C 1015.8 hPa West 1.6 km/h 14.5 km/h 73 % 0.0 mm
18:12 21.4 °C 16.4 °C 1015.8 hPa West 4.8 km/h 11.3 km/h 73 % 0.0 mm
18:17 21.9 °C 16.2 °C 1015.5 hPa WSW 4.8 km/h 12.9 km/h 70 % 0.0 mm
18:22 22.6 °C 15.9 °C 1015.5 hPa West 3.2 km/h 12.9 km/h 66 % 0.0 mm
18:32 23.0 °C 16.1 °C 1015.5 hPa WSW 3.2 km/h 11.3 km/h 65 % 0.0 mm
18:42 23.2 °C 16.3 °C 1015.5 hPa WSW 1.6 km/h 11.3 km/h 65 % 0.0 mm
18:47 23.1 °C 16.4 °C 1015.5 hPa WSW 1.6 km/h 11.3 km/h 66 % 0.0 mm
18:52 22.7 °C 16.0 °C 1015.5 hPa WNW 1.6 km/h 11.3 km/h 66 % 0.0 mm
18:57 22.2 °C 16.0 °C 1015.5 hPa West 1.6 km/h 11.3 km/h 68 % 0.0 mm
19:02 21.9 °C 16.2 °C 1015.1 hPa WSW 6.4 km/h 11.3 km/h 70 % 0.0 mm
19:07 21.9 °C 15.7 °C 1015.1 hPa WSW 4.8 km/h 14.5 km/h 68 % 0.0 mm
19:12 21.8 °C 16.1 °C 1015.1 hPa Calm   14.5 km/h 70 % 0.0 mm
19:17 21.9 °C 16.2 °C 1015.1 hPa West 6.4 km/h 14.5 km/h 70 % 0.0 mm
19:22 21.8 °C 16.1 °C 1015.1 hPa Calm   14.5 km/h 70 % 0.0 mm
19:27 21.5 °C 16.2 °C 1015.1 hPa WSW 1.6 km/h 6.4 km/h 72 % 0.0 mm
19:32 21.4 °C 16.1 °C 1015.1 hPa SW 4.8 km/h 6.4 km/h 72 % 0.0 mm
19:37 21.3 °C 16.3 °C 1015.1 hPa SW 1.6 km/h 8.0 km/h 73 % 0.0 mm
19:42 21.3 °C 16.3 °C 1015.1 hPa WSW 3.2 km/h 8.0 km/h 73 % 0.0 mm
19:47 21.3 °C 16.5 °C 1015.1 hPa SW 3.2 km/h 9.7 km/h 74 % 0.0 mm
19:52 21.4 °C 16.6 °C 1015.1 hPa West 1.6 km/h 9.7 km/h 74 % 0.0 mm
19:57 21.5 °C 16.5 °C 1015.1 hPa WSW 4.8 km/h 8.0 km/h 73 % 0.0 mm
20:02 21.4 °C 16.4 °C 1015.1 hPa Calm   8.0 km/h 73 % 0.0 mm
20:12 21.1 °C 16.3 °C 1015.1 hPa WSW 1.6 km/h 9.7 km/h 74 % 0.0 mm
20:17 21.0 °C 16.2 °C 1015.1 hPa WSW 1.6 km/h 9.7 km/h 74 % 0.0 mm
20:22 20.9 °C 16.3 °C 1015.1 hPa Calm   9.7 km/h 75 % 0.0 mm
20:27 20.9 °C 16.3 °C 1014.8 hPa WSW 1.6 km/h 4.8 km/h 75 % 0.0 mm
20:32 20.8 °C 16.2 °C 1014.8 hPa WSW 3.2 km/h 4.8 km/h 75 % 0.0 mm
20:37 20.8 °C 16.2 °C 1015.1 hPa Calm   4.8 km/h 75 % 0.0 mm
20:42 20.8 °C 16.4 °C 1015.1 hPa Calm   4.8 km/h 76 % 0.0 mm
20:47 20.8 °C 16.4 °C 1014.8 hPa Calm   4.8 km/h 76 % 0.0 mm
20:52 20.7 °C 16.5 °C 1014.8 hPa Calm   4.8 km/h 77 % 0.0 mm
20:57 20.7 °C 16.5 °C 1014.8 hPa Calm   3.2 km/h 77 % 0.0 mm
21:02 20.6 °C 16.4 °C 1014.8 hPa Calm   3.2 km/h 77 % 0.0 mm
21:12 20.3 °C 16.3 °C 1014.8 hPa Calm   3.2 km/h 78 % 0.0 mm
21:17 20.2 °C 16.4 °C 1015.1 hPa Calm   3.2 km/h 79 % 0.0 mm
21:22 20.0 °C 16.2 °C 1015.1 hPa Calm   3.2 km/h 79 % 0.0 mm
21:27 19.8 °C 16.2 °C 1015.1 hPa Calm   3.2 km/h 80 % 0.0 mm
21:32 19.7 °C 16.3 °C 1014.8 hPa Calm   3.2 km/h 81 % 0.0 mm
21:37 19.6 °C 16.2 °C 1014.8 hPa Calm   4.8 km/h 81 % 0.0 mm
21:42 19.4 °C 16.1 °C 1014.8 hPa Calm   4.8 km/h 81 % 0.0 mm
21:47 19.3 °C 16.1 °C 1014.8 hPa Calm   4.8 km/h 82 % 0.0 mm
21:52 19.2 °C 16.1 °C 1015.1 hPa Calm   4.8 km/h 82 % 0.0 mm
21:57 19.2 °C 16.1 °C 1015.1 hPa Calm   4.8 km/h 82 % 0.0 mm
22:02 19.1 °C 16.0 °C 1015.1 hPa Calm   4.8 km/h 82 % 0.0 mm
22:12 18.9 °C 15.9 °C 1015.1 hPa Calm   4.8 km/h 83 % 0.0 mm
22:17 18.7 °C 15.9 °C 1015.1 hPa Calm   1.6 km/h 84 % 0.0 mm
22:22 18.6 °C 15.8 °C 1015.1 hPa Calm   1.6 km/h 84 % 0.0 mm
22:27 18.4 °C 15.6 °C 1015.5 hPa Calm   1.6 km/h 84 % 0.0 mm
22:32 18.2 °C 15.6 °C 1015.5 hPa Calm   1.6 km/h 85 % 0.0 mm
22:37 18.2 °C 15.8 °C 1015.1 hPa Calm   1.6 km/h 86 % 0.0 mm
22:42 18.1 °C 15.7 °C 1015.5 hPa Calm   1.6 km/h 86 % 0.0 mm
22:47 18.2 °C 15.8 °C 1015.5 hPa WSW 1.6 km/h 1.6 km/h 86 % 0.0 mm
22:52 18.2 °C 15.6 °C 1015.5 hPa Calm   1.6 km/h 85 % 0.0 mm
22:57 18.1 °C 15.5 °C 1015.5 hPa Calm   4.8 km/h 85 % 0.0 mm
23:02 17.9 °C 15.3 °C 1015.5 hPa Calm   4.8 km/h 85 % 0.0 mm
23:07 17.9 °C 15.5 °C 1015.5 hPa Calm   3.2 km/h 86 % 0.0 mm
23:12 17.8 °C 15.4 °C 1015.5 hPa SW 1.6 km/h 3.2 km/h 86 % 0.0 mm
23:17 17.9 °C 15.3 °C 1015.5 hPa Calm   4.8 km/h 85 % 0.0 mm
23:22 17.8 °C 15.2 °C 1015.5 hPa Calm   4.8 km/h 85 % 0.0 mm
23:27 17.8 °C 15.2 °C 1015.5 hPa SW 1.6 km/h 6.4 km/h 85 % 0.0 mm
23:32 17.8 °C 15.2 °C 1015.5 hPa West 3.2 km/h 6.4 km/h 85 % 0.0 mm
23:37 17.7 °C 15.1 °C 1015.5 hPa Calm   6.4 km/h 85 % 0.0 mm
23:42 17.7 °C 15.0 °C 1015.5 hPa Calm   6.4 km/h 84 % 0.0 mm
23:47 17.7 °C 15.0 °C 1015.5 hPa WSW 1.6 km/h 4.8 km/h 84 % 0.0 mm
23:52 17.7 °C 14.8 °C 1015.5 hPa WSW 3.2 km/h 4.8 km/h 83 % 0.0 mm
23:57 17.7 °C 14.8 °C 1015.5 hPa Calm   6.4 km/h 83 % 0.0 mm
Meteo18
Compliments of Weather Underground - 4 mb

Script developed by  Jim McMurry - jmcmurry@mwt.net Adapted for the template by  Wim van der Kuil - Leuven-Template.eu

You find our weather info also at:

European Weather Network

Weather Underground

Equipment we use:

Weather-station
Davis Vue

Weather-program
Meteohub

Weather-server
Raspberry PI 2 B+

Provider
1 and 1

Davis Vue

Meteohub

Raspberry PI 2 B+

1 and 1